sensor_id;sensor_type;location;lat;lon;timestamp;temperature;humidity
10678;DHT22;5387;48.722;9.110;2023-07-28T00:00:44;16.90;99.90
10678;DHT22;5387;48.722;9.110;2023-07-28T00:03:11;17.00;99.90
10678;DHT22;5387;48.722;9.110;2023-07-28T00:05:39;16.90;99.90
10678;DHT22;5387;48.722;9.110;2023-07-28T00:08:06;16.90;99.90
10678;DHT22;5387;48.722;9.110;2023-07-28T00:10:32;17.00;99.90
10678;DHT22;5387;48.722;9.110;2023-07-28T00:12:59;16.90;99.90
10678;DHT22;5387;48.722;9.110;2023-07-28T00:15:28;16.80;99.90
10678;DHT22;5387;48.722;9.110;2023-07-28T00:17:54;16.80;99.90
10678;DHT22;5387;48.722;9.110;2023-07-28T00:20:21;16.80;99.90
10678;DHT22;5387;48.722;9.110;2023-07-28T00:22:49;16.80;99.90
10678;DHT22;5387;48.722;9.110;2023-07-28T00:25:16;16.80;99.90
10678;DHT22;5387;48.722;9.110;2023-07-28T00:27:43;16.80;99.90
10678;DHT22;5387;48.722;9.110;2023-07-28T00:30:11;16.70;99.90
10678;DHT22;5387;48.722;9.110;2023-07-28T00:32:38;16.70;99.90
10678;DHT22;5387;48.722;9.110;2023-07-28T00:35:05;16.60;99.90
10678;DHT22;5387;48.722;9.110;2023-07-28T00:37:32;16.70;99.90
10678;DHT22;5387;48.722;9.110;2023-07-28T00:40:00;16.70;99.90
10678;DHT22;5387;48.722;9.110;2023-07-28T00:42:27;16.70;99.90
10678;DHT22;5387;48.722;9.110;2023-07-28T00:44:54;16.60;99.90
10678;DHT22;5387;48.722;9.110;2023-07-28T00:47:21;16.70;99.90
10678;DHT22;5387;48.722;9.110;2023-07-28T00:49:48;16.70;99.90
10678;DHT22;5387;48.722;9.110;2023-07-28T00:52:14;16.80;99.90
10678;DHT22;5387;48.722;9.110;2023-07-28T00:54:41;16.70;99.90
10678;DHT22;5387;48.722;9.110;2023-07-28T00:57:10;16.60;99.90
10678;DHT22;5387;48.722;9.110;2023-07-28T00:59:36;16.70;99.90
10678;DHT22;5387;48.722;9.110;2023-07-28T01:02:04;16.70;99.90
10678;DHT22;5387;48.722;9.110;2023-07-28T01:04:31;16.70;99.90
10678;DHT22;5387;48.722;9.110;2023-07-28T01:07:03;16.70;99.90
10678;DHT22;5387;48.722;9.110;2023-07-28T01:09:36;16.60;99.90
10678;DHT22;5387;48.722;9.110;2023-07-28T01:12:08;16.60;99.90
10678;DHT22;5387;48.722;9.110;2023-07-28T01:14:35;16.60;99.90
10678;DHT22;5387;48.722;9.110;2023-07-28T01:17:03;16.70;99.90
10678;DHT22;5387;48.722;9.110;2023-07-28T01:19:30;16.60;99.90
10678;DHT22;5387;48.722;9.110;2023-07-28T01:22:10;16.40;99.90
10678;DHT22;5387;48.722;9.110;2023-07-28T01:24:51;16.60;99.90
10678;DHT22;5387;48.722;9.110;2023-07-28T01:27:19;16.60;99.90
10678;DHT22;5387;48.722;9.110;2023-07-28T01:29:47;16.50;99.90
10678;DHT22;5387;48.722;9.110;2023-07-28T01:32:14;16.50;99.90
10678;DHT22;5387;48.722;9.110;2023-07-28T01:34:41;16.50;99.90
10678;DHT22;5387;48.722;9.110;2023-07-28T01:37:08;16.50;99.90
10678;DHT22;5387;48.722;9.110;2023-07-28T01:39:35;16.60;99.90
10678;DHT22;5387;48.722;9.110;2023-07-28T01:42:01;16.60;99.90
10678;DHT22;5387;48.722;9.110;2023-07-28T01:44:30;16.70;99.90
10678;DHT22;5387;48.722;9.110;2023-07-28T01:46:56;16.60;99.90
10678;DHT22;5387;48.722;9.110;2023-07-28T01:49:23;16.50;99.90
10678;DHT22;5387;48.722;9.110;2023-07-28T01:51:50;16.70;99.90
10678;DHT22;5387;48.722;9.110;2023-07-28T01:54:17;16.70;99.90
10678;DHT22;5387;48.722;9.110;2023-07-28T01:56:43;16.70;99.90
10678;DHT22;5387;48.722;9.110;2023-07-28T01:59:10;16.70;99.90
10678;DHT22;5387;48.722;9.110;2023-07-28T02:01:40;16.70;99.90
10678;DHT22;5387;48.722;9.110;2023-07-28T02:04:06;16.80;99.90
10678;DHT22;5387;48.722;9.110;2023-07-28T02:06:33;16.70;99.90
10678;DHT22;5387;48.722;9.110;2023-07-28T02:09:00;16.70;99.90
10678;DHT22;5387;48.722;9.110;2023-07-28T02:11:27;16.70;99.90
10678;DHT22;5387;48.722;9.110;2023-07-28T02:13:54;16.60;99.90
10678;DHT22;5387;48.722;9.110;2023-07-28T02:16:21;16.60;99.90
10678;DHT22;5387;48.722;9.110;2023-07-28T02:18:49;16.60;99.90
10678;DHT22;5387;48.722;9.110;2023-07-28T02:21:16;16.60;99.90
10678;DHT22;5387;48.722;9.110;2023-07-28T02:23:42;16.60;99.90
10678;DHT22;5387;48.722;9.110;2023-07-28T02:26:09;16.80;99.90
10678;DHT22;5387;48.722;9.110;2023-07-28T02:28:36;16.60;99.90
10678;DHT22;5387;48.722;9.110;2023-07-28T02:31:03;16.60;99.90
10678;DHT22;5387;48.722;9.110;2023-07-28T02:33:29;16.60;99.90
10678;DHT22;5387;48.722;9.110;2023-07-28T02:36:00;16.80;99.90
10678;DHT22;5387;48.722;9.110;2023-07-28T02:38:27;16.70;99.90
10678;DHT22;5387;48.722;9.110;2023-07-28T02:40:54;16.80;99.90
10678;DHT22;5387;48.722;9.110;2023-07-28T02:43:21;16.80;99.90
10678;DHT22;5387;48.722;9.110;2023-07-28T02:45:48;16.90;99.90
10678;DHT22;5387;48.722;9.110;2023-07-28T02:48:15;17.00;99.90
10678;DHT22;5387;48.722;9.110;2023-07-28T02:50:45;16.80;99.90
10678;DHT22;5387;48.722;9.110;2023-07-28T02:53:14;16.90;99.90
10678;DHT22;5387;48.722;9.110;2023-07-28T02:55:41;16.90;99.90
10678;DHT22;5387;48.722;9.110;2023-07-28T02:58:08;16.80;99.90
10678;DHT22;5387;48.722;9.110;2023-07-28T03:00:37;17.00;99.90
10678;DHT22;5387;48.722;9.110;2023-07-28T03:03:04;17.10;99.90
10678;DHT22;5387;48.722;9.110;2023-07-28T03:05:31;17.00;99.90
10678;DHT22;5387;48.722;9.110;2023-07-28T03:07:58;17.20;99.90
10678;DHT22;5387;48.722;9.110;2023-07-28T03:10:26;17.20;99.90
10678;DHT22;5387;48.722;9.110;2023-07-28T03:12:53;17.30;99.90
10678;DHT22;5387;48.722;9.110;2023-07-28T03:15:20;17.30;99.90
10678;DHT22;5387;48.722;9.110;2023-07-28T03:17:48;17.40;99.90
10678;DHT22;5387;48.722;9.110;2023-07-28T03:20:15;17.40;99.90
10678;DHT22;5387;48.722;9.110;2023-07-28T03:22:41;17.40;99.90
10678;DHT22;5387;48.722;9.110;2023-07-28T03:25:09;17.40;99.90
10678;DHT22;5387;48.722;9.110;2023-07-28T03:27:37;17.50;99.90
10678;DHT22;5387;48.722;9.110;2023-07-28T03:30:05;17.40;99.90
10678;DHT22;5387;48.722;9.110;2023-07-28T03:32:34;17.50;99.90
10678;DHT22;5387;48.722;9.110;2023-07-28T03:35:01;17.60;99.90
10678;DHT22;5387;48.722;9.110;2023-07-28T03:37:30;17.60;99.90
10678;DHT22;5387;48.722;9.110;2023-07-28T03:39:57;17.70;99.90
10678;DHT22;5387;48.722;9.110;2023-07-28T03:42:24;17.70;99.90
10678;DHT22;5387;48.722;9.110;2023-07-28T03:44:52;17.70;99.90
10678;DHT22;5387;48.722;9.110;2023-07-28T03:47:19;17.60;99.90
10678;DHT22;5387;48.722;9.110;2023-07-28T03:49:46;17.70;99.90
10678;DHT22;5387;48.722;9.110;2023-07-28T03:52:12;17.70;99.90
10678;DHT22;5387;48.722;9.110;2023-07-28T03:54:39;17.70;99.90
10678;DHT22;5387;48.722;9.110;2023-07-28T03:57:08;17.80;99.90
10678;DHT22;5387;48.722;9.110;2023-07-28T03:59:35;17.70;99.90
10678;DHT22;5387;48.722;9.110;2023-07-28T04:02:03;17.70;99.90
10678;DHT22;5387;48.722;9.110;2023-07-28T04:04:30;17.70;99.90
10678;DHT22;5387;48.722;9.110;2023-07-28T04:06:57;17.70;99.90
10678;DHT22;5387;48.722;9.110;2023-07-28T04:09:24;17.50;99.90
10678;DHT22;5387;48.722;9.110;2023-07-28T04:11:50;17.30;99.90
10678;DHT22;5387;48.722;9.110;2023-07-28T04:14:17;17.10;99.90
10678;DHT22;5387;48.722;9.110;2023-07-28T04:16:44;17.00;99.90
10678;DHT22;5387;48.722;9.110;2023-07-28T04:19:12;16.90;99.90
10678;DHT22;5387;48.722;9.110;2023-07-28T04:21:39;16.90;99.90
10678;DHT22;5387;48.722;9.110;2023-07-28T04:24:06;16.80;99.90
10678;DHT22;5387;48.722;9.110;2023-07-28T04:26:33;16.90;99.90
10678;DHT22;5387;48.722;9.110;2023-07-28T04:29:00;16.80;99.90
10678;DHT22;5387;48.722;9.110;2023-07-28T04:31:27;16.90;99.90
10678;DHT22;5387;48.722;9.110;2023-07-28T04:33:53;16.90;99.90
10678;DHT22;5387;48.722;9.110;2023-07-28T04:36:21;16.90;99.90
10678;DHT22;5387;48.722;9.110;2023-07-28T04:38:48;17.10;99.90
10678;DHT22;5387;48.722;9.110;2023-07-28T04:41:15;17.20;99.90
10678;DHT22;5387;48.722;9.110;2023-07-28T04:43:42;17.10;99.90
10678;DHT22;5387;48.722;9.110;2023-07-28T04:46:09;17.30;99.90
10678;DHT22;5387;48.722;9.110;2023-07-28T04:48:35;17.40;99.90
10678;DHT22;5387;48.722;9.110;2023-07-28T04:51:02;17.40;99.90
10678;DHT22;5387;48.722;9.110;2023-07-28T04:53:30;17.40;99.90
10678;DHT22;5387;48.722;9.110;2023-07-28T04:55:57;17.40;99.90
10678;DHT22;5387;48.722;9.110;2023-07-28T04:58:24;17.50;99.90
10678;DHT22;5387;48.722;9.110;2023-07-28T05:00:51;17.40;99.90
10678;DHT22;5387;48.722;9.110;2023-07-28T05:03:17;17.40;99.90
10678;DHT22;5387;48.722;9.110;2023-07-28T05:05:44;17.50;99.90
10678;DHT22;5387;48.722;9.110;2023-07-28T05:08:11;17.30;99.90
10678;DHT22;5387;48.722;9.110;2023-07-28T05:10:41;17.30;99.90
10678;DHT22;5387;48.722;9.110;2023-07-28T05:13:08;17.20;99.90
10678;DHT22;5387;48.722;9.110;2023-07-28T05:15:35;17.00;99.90
10678;DHT22;5387;48.722;9.110;2023-07-28T05:18:02;17.00;99.90
10678;DHT22;5387;48.722;9.110;2023-07-28T05:20:28;16.90;99.90
10678;DHT22;5387;48.722;9.110;2023-07-28T05:22:55;16.80;99.90
10678;DHT22;5387;48.722;9.110;2023-07-28T05:25:22;16.80;99.90
10678;DHT22;5387;48.722;9.110;2023-07-28T05:27:51;16.80;99.90
10678;DHT22;5387;48.722;9.110;2023-07-28T05:30:17;16.90;99.90
10678;DHT22;5387;48.722;9.110;2023-07-28T05:32:44;16.70;99.90
10678;DHT22;5387;48.722;9.110;2023-07-28T05:35:11;16.70;99.90
10678;DHT22;5387;48.722;9.110;2023-07-28T05:37:38;16.70;99.90
10678;DHT22;5387;48.722;9.110;2023-07-28T05:40:06;16.60;99.90
10678;DHT22;5387;48.722;9.110;2023-07-28T05:42:33;16.50;99.90
10678;DHT22;5387;48.722;9.110;2023-07-28T05:45:01;16.60;99.90
10678;DHT22;5387;48.722;9.110;2023-07-28T05:47:29;16.60;99.90
10678;DHT22;5387;48.722;9.110;2023-07-28T05:49:55;16.80;99.90
10678;DHT22;5387;48.722;9.110;2023-07-28T05:52:22;16.90;99.90
10678;DHT22;5387;48.722;9.110;2023-07-28T05:54:49;16.90;99.90
10678;DHT22;5387;48.722;9.110;2023-07-28T05:57:16;16.80;99.90
10678;DHT22;5387;48.722;9.110;2023-07-28T05:59:43;16.80;99.90
10678;DHT22;5387;48.722;9.110;2023-07-28T06:02:11;16.90;99.90
10678;DHT22;5387;48.722;9.110;2023-07-28T06:04:37;17.00;99.90
10678;DHT22;5387;48.722;9.110;2023-07-28T06:07:05;17.00;99.90
10678;DHT22;5387;48.722;9.110;2023-07-28T06:09:32;17.10;99.90
10678;DHT22;5387;48.722;9.110;2023-07-28T06:11:59;17.20;99.90
10678;DHT22;5387;48.722;9.110;2023-07-28T06:14:26;17.20;99.90
10678;DHT22;5387;48.722;9.110;2023-07-28T06:16:53;17.20;99.90
10678;DHT22;5387;48.722;9.110;2023-07-28T06:19:21;16.90;99.90
10678;DHT22;5387;48.722;9.110;2023-07-28T06:21:49;17.00;99.90
10678;DHT22;5387;48.722;9.110;2023-07-28T06:24:16;17.00;99.90
10678;DHT22;5387;48.722;9.110;2023-07-28T06:26:43;17.00;99.90
10678;DHT22;5387;48.722;9.110;2023-07-28T06:29:10;17.10;99.90
10678;DHT22;5387;48.722;9.110;2023-07-28T06:31:37;17.00;99.90
10678;DHT22;5387;48.722;9.110;2023-07-28T06:34:04;17.00;99.90
10678;DHT22;5387;48.722;9.110;2023-07-28T06:36:32;17.20;99.90
10678;DHT22;5387;48.722;9.110;2023-07-28T06:38:59;17.30;99.90
10678;DHT22;5387;48.722;9.110;2023-07-28T06:41:26;17.30;99.90
10678;DHT22;5387;48.722;9.110;2023-07-28T06:43:53;17.60;99.90
10678;DHT22;5387;48.722;9.110;2023-07-28T06:46:19;17.60;99.90
10678;DHT22;5387;48.722;9.110;2023-07-28T06:48:47;17.70;99.90
10678;DHT22;5387;48.722;9.110;2023-07-28T06:51:14;17.80;99.90
10678;DHT22;5387;48.722;9.110;2023-07-28T06:53:42;18.00;99.90
10678;DHT22;5387;48.722;9.110;2023-07-28T06:56:09;18.00;99.90
10678;DHT22;5387;48.722;9.110;2023-07-28T06:58:36;18.00;99.90
10678;DHT22;5387;48.722;9.110;2023-07-28T07:01:03;18.20;99.90
10678;DHT22;5387;48.722;9.110;2023-07-28T07:03:29;18.50;99.90
10678;DHT22;5387;48.722;9.110;2023-07-28T07:05:56;18.70;99.90
10678;DHT22;5387;48.722;9.110;2023-07-28T07:08:23;18.80;99.90
10678;DHT22;5387;48.722;9.110;2023-07-28T07:10:52;18.70;99.90
10678;DHT22;5387;48.722;9.110;2023-07-28T07:13:19;18.70;99.90
10678;DHT22;5387;48.722;9.110;2023-07-28T07:15:47;18.70;99.90
10678;DHT22;5387;48.722;9.110;2023-07-28T07:18:13;18.60;99.90
10678;DHT22;5387;48.722;9.110;2023-07-28T07:20:40;18.70;99.90
10678;DHT22;5387;48.722;9.110;2023-07-28T07:23:07;18.80;99.90
10678;DHT22;5387;48.722;9.110;2023-07-28T07:25:34;18.60;99.90
10678;DHT22;5387;48.722;9.110;2023-07-28T07:28:03;18.80;99.90
10678;DHT22;5387;48.722;9.110;2023-07-28T07:30:32;19.00;99.90
10678;DHT22;5387;48.722;9.110;2023-07-28T07:32:59;19.20;99.90
10678;DHT22;5387;48.722;9.110;2023-07-28T07:35:26;19.30;99.90
10678;DHT22;5387;48.722;9.110;2023-07-28T07:37:54;19.50;99.90
10678;DHT22;5387;48.722;9.110;2023-07-28T07:40:21;19.90;99.90
10678;DHT22;5387;48.722;9.110;2023-07-28T07:42:48;20.00;99.90
10678;DHT22;5387;48.722;9.110;2023-07-28T07:45:17;19.70;99.90
10678;DHT22;5387;48.722;9.110;2023-07-28T07:47:44;19.40;99.90
10678;DHT22;5387;48.722;9.110;2023-07-28T07:50:11;19.60;99.90
10678;DHT22;5387;48.722;9.110;2023-07-28T07:52:39;19.80;99.90
10678;DHT22;5387;48.722;9.110;2023-07-28T07:55:06;19.90;99.90
10678;DHT22;5387;48.722;9.110;2023-07-28T07:57:33;20.10;99.90
10678;DHT22;5387;48.722;9.110;2023-07-28T07:59:59;20.30;99.90
10678;DHT22;5387;48.722;9.110;2023-07-28T08:02:28;20.20;99.90
10678;DHT22;5387;48.722;9.110;2023-07-28T08:04:54;20.30;99.90
10678;DHT22;5387;48.722;9.110;2023-07-28T08:07:21;20.40;99.90
10678;DHT22;5387;48.722;9.110;2023-07-28T08:09:48;20.50;99.90
10678;DHT22;5387;48.722;9.110;2023-07-28T08:12:15;20.50;99.90
10678;DHT22;5387;48.722;9.110;2023-07-28T08:14:42;20.70;99.90
10678;DHT22;5387;48.722;9.110;2023-07-28T08:17:11;20.90;99.90
10678;DHT22;5387;48.722;9.110;2023-07-28T08:19:39;21.00;99.90
10678;DHT22;5387;48.722;9.110;2023-07-28T08:22:07;20.70;99.90
10678;DHT22;5387;48.722;9.110;2023-07-28T08:24:34;20.70;99.90
10678;DHT22;5387;48.722;9.110;2023-07-28T08:27:01;20.60;99.90
10678;DHT22;5387;48.722;9.110;2023-07-28T08:29:29;20.60;99.90
10678;DHT22;5387;48.722;9.110;2023-07-28T08:31:55;20.50;99.90
10678;DHT22;5387;48.722;9.110;2023-07-28T08:34:22;20.70;99.90
10678;DHT22;5387;48.722;9.110;2023-07-28T08:36:50;21.10;99.90
10678;DHT22;5387;48.722;9.110;2023-07-28T08:39:17;21.30;99.90
10678;DHT22;5387;48.722;9.110;2023-07-28T08:41:45;21.40;99.90
10678;DHT22;5387;48.722;9.110;2023-07-28T08:44:12;21.10;99.90
10678;DHT22;5387;48.722;9.110;2023-07-28T08:46:39;21.10;99.90
10678;DHT22;5387;48.722;9.110;2023-07-28T08:49:05;21.30;99.90
10678;DHT22;5387;48.722;9.110;2023-07-28T08:51:32;21.30;99.90
10678;DHT22;5387;48.722;9.110;2023-07-28T08:54:00;21.30;99.90
10678;DHT22;5387;48.722;9.110;2023-07-28T08:56:27;21.40;99.90
10678;DHT22;5387;48.722;9.110;2023-07-28T08:58:58;21.60;99.90
10678;DHT22;5387;48.722;9.110;2023-07-28T09:01:25;21.60;99.90
10678;DHT22;5387;48.722;9.110;2023-07-28T09:03:52;21.60;99.90
10678;DHT22;5387;48.722;9.110;2023-07-28T09:06:28;21.50;99.90
10678;DHT22;5387;48.722;9.110;2023-07-28T09:08:56;21.50;99.90
10678;DHT22;5387;48.722;9.110;2023-07-28T09:11:24;21.20;99.90
10678;DHT22;5387;48.722;9.110;2023-07-28T09:13:53;21.20;99.90
10678;DHT22;5387;48.722;9.110;2023-07-28T09:16:21;21.10;99.90
10678;DHT22;5387;48.722;9.110;2023-07-28T09:18:50;21.20;99.90
10678;DHT22;5387;48.722;9.110;2023-07-28T09:21:17;21.30;99.90
10678;DHT22;5387;48.722;9.110;2023-07-28T09:23:46;21.30;99.90
10678;DHT22;5387;48.722;9.110;2023-07-28T09:26:14;21.10;99.90
10678;DHT22;5387;48.722;9.110;2023-07-28T09:28:42;21.10;99.90
10678;DHT22;5387;48.722;9.110;2023-07-28T09:31:09;21.20;99.90
10678;DHT22;5387;48.722;9.110;2023-07-28T09:33:37;21.40;99.90
10678;DHT22;5387;48.722;9.110;2023-07-28T09:36:09;21.70;99.90
10678;DHT22;5387;48.722;9.110;2023-07-28T09:38:37;21.70;99.90
10678;DHT22;5387;48.722;9.110;2023-07-28T09:41:05;21.70;99.90
10678;DHT22;5387;48.722;9.110;2023-07-28T09:43:34;21.50;99.90
10678;DHT22;5387;48.722;9.110;2023-07-28T09:46:04;21.40;99.90
10678;DHT22;5387;48.722;9.110;2023-07-28T09:48:33;21.30;99.90
10678;DHT22;5387;48.722;9.110;2023-07-28T09:51:02;21.30;99.90
10678;DHT22;5387;48.722;9.110;2023-07-28T09:53:34;21.60;99.90
10678;DHT22;5387;48.722;9.110;2023-07-28T09:56:02;21.70;99.90
10678;DHT22;5387;48.722;9.110;2023-07-28T09:58:33;21.70;99.90
10678;DHT22;5387;48.722;9.110;2023-07-28T10:01:05;22.00;99.90
10678;DHT22;5387;48.722;9.110;2023-07-28T10:03:33;22.00;99.90
10678;DHT22;5387;48.722;9.110;2023-07-28T10:06:00;21.60;99.90
10678;DHT22;5387;48.722;9.110;2023-07-28T10:08:27;21.30;99.90
10678;DHT22;5387;48.722;9.110;2023-07-28T10:10:54;21.20;99.90
10678;DHT22;5387;48.722;9.110;2023-07-28T10:13:22;21.20;99.90
10678;DHT22;5387;48.722;9.110;2023-07-28T10:15:50;21.50;99.90
10678;DHT22;5387;48.722;9.110;2023-07-28T10:18:19;21.90;99.90
10678;DHT22;5387;48.722;9.110;2023-07-28T10:20:46;22.40;99.90
10678;DHT22;5387;48.722;9.110;2023-07-28T10:23:15;22.40;99.90
10678;DHT22;5387;48.722;9.110;2023-07-28T10:25:44;22.50;99.90
10678;DHT22;5387;48.722;9.110;2023-07-28T10:28:26;22.70;99.90
10678;DHT22;5387;48.722;9.110;2023-07-28T10:30:54;22.50;99.90
10678;DHT22;5387;48.722;9.110;2023-07-28T10:33:31;22.20;99.90
10678;DHT22;5387;48.722;9.110;2023-07-28T10:35:58;22.30;99.90
10678;DHT22;5387;48.722;9.110;2023-07-28T10:38:30;22.10;99.90
10678;DHT22;5387;48.722;9.110;2023-07-28T10:41:14;22.20;99.90
10678;DHT22;5387;48.722;9.110;2023-07-28T10:43:42;22.50;99.90
10678;DHT22;5387;48.722;9.110;2023-07-28T10:46:10;22.60;99.90
10678;DHT22;5387;48.722;9.110;2023-07-28T10:48:41;23.10;99.90
10678;DHT22;5387;48.722;9.110;2023-07-28T10:51:09;23.10;99.90
10678;DHT22;5387;48.722;9.110;2023-07-28T10:53:37;23.00;99.90
10678;DHT22;5387;48.722;9.110;2023-07-28T10:56:04;23.50;99.90
10678;DHT22;5387;48.722;9.110;2023-07-28T10:58:33;24.20;99.90
10678;DHT22;5387;48.722;9.110;2023-07-28T11:01:00;24.30;99.90
10678;DHT22;5387;48.722;9.110;2023-07-28T11:03:28;24.30;99.90
10678;DHT22;5387;48.722;9.110;2023-07-28T11:05:57;24.10;99.90
10678;DHT22;5387;48.722;9.110;2023-07-28T11:08:24;24.60;99.90
10678;DHT22;5387;48.722;9.110;2023-07-28T11:10:51;25.00;99.90
10678;DHT22;5387;48.722;9.110;2023-07-28T11:13:18;24.80;99.90
10678;DHT22;5387;48.722;9.110;2023-07-28T11:15:45;25.10;99.90
10678;DHT22;5387;48.722;9.110;2023-07-28T11:18:15;25.00;99.90
10678;DHT22;5387;48.722;9.110;2023-07-28T11:20:41;24.50;99.90
10678;DHT22;5387;48.722;9.110;2023-07-28T11:23:10;24.30;99.90
10678;DHT22;5387;48.722;9.110;2023-07-28T11:25:39;24.30;99.90
10678;DHT22;5387;48.722;9.110;2023-07-28T11:28:08;24.30;99.90
10678;DHT22;5387;48.722;9.110;2023-07-28T11:30:36;24.30;99.90
10678;DHT22;5387;48.722;9.110;2023-07-28T11:33:04;24.50;99.90
10678;DHT22;5387;48.722;9.110;2023-07-28T11:35:30;23.80;99.90
10678;DHT22;5387;48.722;9.110;2023-07-28T11:37:57;23.30;99.90
10678;DHT22;5387;48.722;9.110;2023-07-28T11:40:26;23.40;99.90
10678;DHT22;5387;48.722;9.110;2023-07-28T11:42:54;23.20;99.90
10678;DHT22;5387;48.722;9.110;2023-07-28T11:45:22;22.90;99.90
10678;DHT22;5387;48.722;9.110;2023-07-28T11:47:56;22.80;99.90
10678;DHT22;5387;48.722;9.110;2023-07-28T11:50:25;22.80;99.90
10678;DHT22;5387;48.722;9.110;2023-07-28T11:52:52;22.60;99.90
10678;DHT22;5387;48.722;9.110;2023-07-28T11:55:19;22.40;99.90
10678;DHT22;5387;48.722;9.110;2023-07-28T11:57:49;22.10;99.90
10678;DHT22;5387;48.722;9.110;2023-07-28T12:00:16;21.90;99.90
10678;DHT22;5387;48.722;9.110;2023-07-28T12:02:44;21.50;99.90
10678;DHT22;5387;48.722;9.110;2023-07-28T12:05:15;21.30;99.90
10678;DHT22;5387;48.722;9.110;2023-07-28T12:07:47;21.30;99.90
10678;DHT22;5387;48.722;9.110;2023-07-28T12:10:14;21.10;99.90
10678;DHT22;5387;48.722;9.110;2023-07-28T12:12:45;20.90;99.90
10678;DHT22;5387;48.722;9.110;2023-07-28T12:15:21;20.70;99.90
10678;DHT22;5387;48.722;9.110;2023-07-28T12:18:08;20.80;99.90
10678;DHT22;5387;48.722;9.110;2023-07-28T12:20:37;20.80;99.90
10678;DHT22;5387;48.722;9.110;2023-07-28T12:23:05;21.10;99.90
10678;DHT22;5387;48.722;9.110;2023-07-28T12:25:32;21.10;99.90
10678;DHT22;5387;48.722;9.110;2023-07-28T12:27:59;21.40;99.90
10678;DHT22;5387;48.722;9.110;2023-07-28T12:30:27;21.50;99.90
10678;DHT22;5387;48.722;9.110;2023-07-28T12:32:54;21.80;99.90
10678;DHT22;5387;48.722;9.110;2023-07-28T12:35:21;22.00;99.90
10678;DHT22;5387;48.722;9.110;2023-07-28T12:37:49;22.50;99.90
10678;DHT22;5387;48.722;9.110;2023-07-28T12:40:17;23.30;99.90
10678;DHT22;5387;48.722;9.110;2023-07-28T12:42:44;24.30;99.90
10678;DHT22;5387;48.722;9.110;2023-07-28T12:45:11;25.10;99.90
10678;DHT22;5387;48.722;9.110;2023-07-28T12:47:40;24.50;99.90
10678;DHT22;5387;48.722;9.110;2023-07-28T12:50:07;24.30;99.90
10678;DHT22;5387;48.722;9.110;2023-07-28T12:52:35;24.20;99.90
10678;DHT22;5387;48.722;9.110;2023-07-28T12:55:02;24.10;99.90
10678;DHT22;5387;48.722;9.110;2023-07-28T12:57:29;24.20;99.90
10678;DHT22;5387;48.722;9.110;2023-07-28T12:59:56;24.20;99.90
10678;DHT22;5387;48.722;9.110;2023-07-28T13:02:23;23.90;99.90
10678;DHT22;5387;48.722;9.110;2023-07-28T13:04:51;23.70;99.90
10678;DHT22;5387;48.722;9.110;2023-07-28T13:07:17;23.30;99.90
10678;DHT22;5387;48.722;9.110;2023-07-28T13:09:44;22.90;99.90
10678;DHT22;5387;48.722;9.110;2023-07-28T13:12:12;22.60;99.90
10678;DHT22;5387;48.722;9.110;2023-07-28T13:14:38;22.10;99.90
10678;DHT22;5387;48.722;9.110;2023-07-28T13:17:05;21.80;99.90
10678;DHT22;5387;48.722;9.110;2023-07-28T13:19:32;21.60;99.90
10678;DHT22;5387;48.722;9.110;2023-07-28T13:22:01;21.50;99.90
10678;DHT22;5387;48.722;9.110;2023-07-28T13:24:27;21.00;99.90
10678;DHT22;5387;48.722;9.110;2023-07-28T13:26:54;20.80;99.90
10678;DHT22;5387;48.722;9.110;2023-07-28T13:29:22;20.50;99.90
10678;DHT22;5387;48.722;9.110;2023-07-28T13:31:49;20.20;99.90
10678;DHT22;5387;48.722;9.110;2023-07-28T13:34:16;20.00;99.90
10678;DHT22;5387;48.722;9.110;2023-07-28T13:36:43;19.90;99.90
10678;DHT22;5387;48.722;9.110;2023-07-28T13:39:11;19.70;99.90
10678;DHT22;5387;48.722;9.110;2023-07-28T13:41:37;19.50;99.90
10678;DHT22;5387;48.722;9.110;2023-07-28T13:44:04;19.30;99.90
10678;DHT22;5387;48.722;9.110;2023-07-28T13:46:31;19.20;99.90
10678;DHT22;5387;48.722;9.110;2023-07-28T13:48:58;19.20;99.90
10678;DHT22;5387;48.722;9.110;2023-07-28T13:51:25;19.00;99.90
10678;DHT22;5387;48.722;9.110;2023-07-28T13:53:51;18.90;99.90
10678;DHT22;5387;48.722;9.110;2023-07-28T13:56:19;18.80;99.90
10678;DHT22;5387;48.722;9.110;2023-07-28T13:58:46;18.60;99.90
10678;DHT22;5387;48.722;9.110;2023-07-28T14:01:13;18.30;99.90
10678;DHT22;5387;48.722;9.110;2023-07-28T14:03:40;18.20;99.90
10678;DHT22;5387;48.722;9.110;2023-07-28T14:06:07;18.20;99.90
10678;DHT22;5387;48.722;9.110;2023-07-28T14:08:33;17.90;99.90
10678;DHT22;5387;48.722;9.110;2023-07-28T14:11:00;17.90;99.90
10678;DHT22;5387;48.722;9.110;2023-07-28T14:13:28;18.00;99.90
10678;DHT22;5387;48.722;9.110;2023-07-28T14:15:55;18.10;99.90
10678;DHT22;5387;48.722;9.110;2023-07-28T14:18:22;18.30;99.90
10678;DHT22;5387;48.722;9.110;2023-07-28T14:20:49;18.30;99.90
10678;DHT22;5387;48.722;9.110;2023-07-28T14:23:23;18.30;99.90
10678;DHT22;5387;48.722;9.110;2023-07-28T14:25:50;18.50;99.90
10678;DHT22;5387;48.722;9.110;2023-07-28T14:28:17;18.40;99.90
10678;DHT22;5387;48.722;9.110;2023-07-28T14:30:46;18.50;99.90
10678;DHT22;5387;48.722;9.110;2023-07-28T14:33:13;18.40;99.90
10678;DHT22;5387;48.722;9.110;2023-07-28T14:35:40;18.40;99.90
10678;DHT22;5387;48.722;9.110;2023-07-28T14:38:07;18.70;99.90
10678;DHT22;5387;48.722;9.110;2023-07-28T14:40:34;18.60;99.90
10678;DHT22;5387;48.722;9.110;2023-07-28T14:43:01;18.40;99.90
10678;DHT22;5387;48.722;9.110;2023-07-28T14:45:28;18.50;99.90
10678;DHT22;5387;48.722;9.110;2023-07-28T14:47:56;18.60;99.90
10678;DHT22;5387;48.722;9.110;2023-07-28T14:50:23;18.70;99.90
10678;DHT22;5387;48.722;9.110;2023-07-28T14:52:50;18.70;99.90
10678;DHT22;5387;48.722;9.110;2023-07-28T14:55:16;18.70;99.90
10678;DHT22;5387;48.722;9.110;2023-07-28T14:57:43;18.80;99.90
10678;DHT22;5387;48.722;9.110;2023-07-28T15:00:11;18.90;99.90
10678;DHT22;5387;48.722;9.110;2023-07-28T15:02:38;19.30;99.90
10678;DHT22;5387;48.722;9.110;2023-07-28T15:05:07;19.70;99.90
10678;DHT22;5387;48.722;9.110;2023-07-28T15:07:34;19.80;99.90
10678;DHT22;5387;48.722;9.110;2023-07-28T15:10:02;20.40;99.90
10678;DHT22;5387;48.722;9.110;2023-07-28T15:12:30;20.70;99.90
10678;DHT22;5387;48.722;9.110;2023-07-28T15:14:57;20.70;99.90
10678;DHT22;5387;48.722;9.110;2023-07-28T15:17:24;20.70;99.90
10678;DHT22;5387;48.722;9.110;2023-07-28T15:19:50;20.70;99.90
10678;DHT22;5387;48.722;9.110;2023-07-28T15:22:18;21.00;99.90
10678;DHT22;5387;48.722;9.110;2023-07-28T15:24:45;20.90;99.90
10678;DHT22;5387;48.722;9.110;2023-07-28T15:27:12;20.70;99.90
10678;DHT22;5387;48.722;9.110;2023-07-28T15:29:39;20.70;99.90
10678;DHT22;5387;48.722;9.110;2023-07-28T15:32:06;20.50;99.90
10678;DHT22;5387;48.722;9.110;2023-07-28T15:34:33;20.30;99.90
10678;DHT22;5387;48.722;9.110;2023-07-28T15:37:00;20.10;99.90
10678;DHT22;5387;48.722;9.110;2023-07-28T15:39:30;19.90;99.90
10678;DHT22;5387;48.722;9.110;2023-07-28T15:41:57;19.80;99.90
10678;DHT22;5387;48.722;9.110;2023-07-28T15:44:24;19.70;99.90
10678;DHT22;5387;48.722;9.110;2023-07-28T15:46:51;19.60;99.90